Terminal Aerodrome Forecast
Issued by NWS

Home | Current Version | Previous Version | Text Only | Print | Product List | Glossary Off
Versions: 1 2 3 4 5 6 7 8 9 10 11 12 13 14 15 16 17

000
FTUS43 KBIS 222338
TAFDIK
TAF
KDIK 222338Z 2300/2324 14018G25KT P6SM SCT100
     FM230200 14009KT P6SM SCT080 BKN250
     FM231600 12014KT P6SM BKN025 OVC080
     FM231800 12014KT P6SM -SHRA SCT015 OVC025=

USA.gov is the U.S. government's official web portal to all federal, state and local government web resources and services.